sensor_id;sensor_type;location;lat;lon;timestamp;P1;durP1;ratioP1;P2;durP2;ratioP2
21356;SDS011;10836;53.068;18.234;2023-07-09T00:01:28;7.97;;;3.63;;
21356;SDS011;10836;53.068;18.234;2023-07-09T00:03:54;6.43;;;3.47;;
21356;SDS011;10836;53.068;18.234;2023-07-09T00:06:22;7.05;;;3.30;;
21356;SDS011;10836;53.068;18.234;2023-07-09T00:08:48;6.95;;;3.65;;
21356;SDS011;10836;53.068;18.234;2023-07-09T00:11:17;8.15;;;4.28;;
21356;SDS011;10836;53.068;18.234;2023-07-09T00:13:44;10.65;;;3.80;;
21356;SDS011;10836;53.068;18.234;2023-07-09T00:16:12;9.52;;;4.18;;
21356;SDS011;10836;53.068;18.234;2023-07-09T00:18:42;8.07;;;4.05;;
21356;SDS011;10836;53.068;18.234;2023-07-09T00:21:09;7.93;;;3.75;;
21356;SDS011;10836;53.068;18.234;2023-07-09T00:23:36;7.00;;;3.75;;
21356;SDS011;10836;53.068;18.234;2023-07-09T00:26:09;7.32;;;3.67;;
21356;SDS011;10836;53.068;18.234;2023-07-09T00:28:41;8.88;;;3.80;;
21356;SDS011;10836;53.068;18.234;2023-07-09T00:31:10;7.20;;;3.85;;
21356;SDS011;10836;53.068;18.234;2023-07-09T00:33:40;10.07;;;3.42;;
21356;SDS011;10836;53.068;18.234;2023-07-09T00:36:15;7.95;;;3.17;;
21356;SDS011;10836;53.068;18.234;2023-07-09T00:38:46;6.55;;;3.67;;
21356;SDS011;10836;53.068;18.234;2023-07-09T00:41:16;6.20;;;3.25;;
21356;SDS011;10836;53.068;18.234;2023-07-09T00:43:46;6.35;;;3.63;;
21356;SDS011;10836;53.068;18.234;2023-07-09T00:48:51;5.85;;;3.50;;
21356;SDS011;10836;53.068;18.234;2023-07-09T00:51:32;6.60;;;3.60;;
21356;SDS011;10836;53.068;18.234;2023-07-09T00:54:07;7.38;;;3.67;;
21356;SDS011;10836;53.068;18.234;2023-07-09T00:56:43;6.53;;;3.20;;
21356;SDS011;10836;53.068;18.234;2023-07-09T00:59:14;4.85;;;3.47;;
21356;SDS011;10836;53.068;18.234;2023-07-09T01:01:45;9.93;;;4.20;;
21356;SDS011;10836;53.068;18.234;2023-07-09T01:04:14;9.15;;;3.72;;
21356;SDS011;10836;53.068;18.234;2023-07-09T01:06:46;8.77;;;3.65;;
21356;SDS011;10836;53.068;18.234;2023-07-09T01:09:17;8.18;;;3.47;;
21356;SDS011;10836;53.068;18.234;2023-07-09T01:11:44;6.22;;;3.78;;
21356;SDS011;10836;53.068;18.234;2023-07-09T01:14:12;6.00;;;3.50;;
21356;SDS011;10836;53.068;18.234;2023-07-09T01:16:44;6.88;;;3.83;;
21356;SDS011;10836;53.068;18.234;2023-07-09T01:19:17;7.18;;;3.78;;
21356;SDS011;10836;53.068;18.234;2023-07-09T01:21:53;7.75;;;3.97;;
21356;SDS011;10836;53.068;18.234;2023-07-09T01:27:17;10.05;;;3.85;;
21356;SDS011;10836;53.068;18.234;2023-07-09T01:29:46;6.10;;;3.85;;
21356;SDS011;10836;53.068;18.234;2023-07-09T01:32:16;7.57;;;3.50;;
21356;SDS011;10836;53.068;18.234;2023-07-09T01:34:49;6.18;;;3.95;;
21356;SDS011;10836;53.068;18.234;2023-07-09T01:37:22;9.48;;;4.18;;
21356;SDS011;10836;53.068;18.234;2023-07-09T01:39:52;7.90;;;4.20;;
21356;SDS011;10836;53.068;18.234;2023-07-09T01:42:20;7.45;;;3.70;;
21356;SDS011;10836;53.068;18.234;2023-07-09T01:44:50;8.65;;;4.18;;
21356;SDS011;10836;53.068;18.234;2023-07-09T01:47:18;7.10;;;4.10;;
21356;SDS011;10836;53.068;18.234;2023-07-09T01:49:46;6.82;;;4.15;;
21356;SDS011;10836;53.068;18.234;2023-07-09T01:52:14;7.82;;;4.13;;
21356;SDS011;10836;53.068;18.234;2023-07-09T01:54:43;7.38;;;4.03;;
21356;SDS011;10836;53.068;18.234;2023-07-09T01:57:17;8.35;;;4.10;;
21356;SDS011;10836;53.068;18.234;2023-07-09T01:59:50;7.80;;;4.38;;
21356;SDS011;10836;53.068;18.234;2023-07-09T02:02:18;10.65;;;4.43;;
21356;SDS011;10836;53.068;18.234;2023-07-09T02:04:46;7.10;;;4.07;;
21356;SDS011;10836;53.068;18.234;2023-07-09T02:07:15;8.00;;;4.50;;
21356;SDS011;10836;53.068;18.234;2023-07-09T02:09:42;6.10;;;4.10;;
21356;SDS011;10836;53.068;18.234;2023-07-09T02:12:10;12.15;;;3.97;;
21356;SDS011;10836;53.068;18.234;2023-07-09T02:14:39;6.43;;;3.93;;
21356;SDS011;10836;53.068;18.234;2023-07-09T02:17:07;9.70;;;3.80;;
21356;SDS011;10836;53.068;18.234;2023-07-09T02:19:35;8.77;;;4.22;;
21356;SDS011;10836;53.068;18.234;2023-07-09T02:22:02;6.65;;;3.95;;
21356;SDS011;10836;53.068;18.234;2023-07-09T02:24:30;7.43;;;4.15;;
21356;SDS011;10836;53.068;18.234;2023-07-09T02:26:59;8.02;;;4.00;;
21356;SDS011;10836;53.068;18.234;2023-07-09T02:29:29;6.90;;;4.25;;
21356;SDS011;10836;53.068;18.234;2023-07-09T02:31:58;8.82;;;4.20;;
21356;SDS011;10836;53.068;18.234;2023-07-09T02:34:29;10.15;;;3.95;;
21356;SDS011;10836;53.068;18.234;2023-07-09T02:36:58;6.75;;;4.18;;
21356;SDS011;10836;53.068;18.234;2023-07-09T02:39:26;10.70;;;5.63;;
21356;SDS011;10836;53.068;18.234;2023-07-09T02:41:53;11.95;;;4.85;;
21356;SDS011;10836;53.068;18.234;2023-07-09T02:44:20;8.48;;;4.38;;
21356;SDS011;10836;53.068;18.234;2023-07-09T02:46:48;10.45;;;4.47;;
21356;SDS011;10836;53.068;18.234;2023-07-09T02:49:15;8.02;;;4.43;;
21356;SDS011;10836;53.068;18.234;2023-07-09T02:51:43;7.22;;;4.20;;
21356;SDS011;10836;53.068;18.234;2023-07-09T02:54:10;6.63;;;4.20;;
21356;SDS011;10836;53.068;18.234;2023-07-09T02:56:37;5.57;;;4.35;;
21356;SDS011;10836;53.068;18.234;2023-07-09T02:59:04;6.95;;;4.60;;
21356;SDS011;10836;53.068;18.234;2023-07-09T03:01:32;8.20;;;4.70;;
21356;SDS011;10836;53.068;18.234;2023-07-09T03:04:01;7.82;;;3.83;;
21356;SDS011;10836;53.068;18.234;2023-07-09T03:06:31;8.20;;;4.20;;
21356;SDS011;10836;53.068;18.234;2023-07-09T03:09:02;8.57;;;4.47;;
21356;SDS011;10836;53.068;18.234;2023-07-09T03:11:31;9.63;;;4.35;;
21356;SDS011;10836;53.068;18.234;2023-07-09T03:13:59;6.75;;;4.53;;
21356;SDS011;10836;53.068;18.234;2023-07-09T03:16:28;8.77;;;4.97;;
21356;SDS011;10836;53.068;18.234;2023-07-09T03:18:56;12.45;;;4.88;;
21356;SDS011;10836;53.068;18.234;2023-07-09T03:21:24;8.57;;;4.78;;
21356;SDS011;10836;53.068;18.234;2023-07-09T03:23:53;9.63;;;4.82;;
21356;SDS011;10836;53.068;18.234;2023-07-09T03:26:21;6.90;;;4.60;;
21356;SDS011;10836;53.068;18.234;2023-07-09T03:28:48;7.32;;;4.90;;
21356;SDS011;10836;53.068;18.234;2023-07-09T03:31:15;5.85;;;4.25;;
21356;SDS011;10836;53.068;18.234;2023-07-09T03:33:42;8.50;;;4.68;;
21356;SDS011;10836;53.068;18.234;2023-07-09T03:36:10;9.20;;;4.97;;
21356;SDS011;10836;53.068;18.234;2023-07-09T03:38:36;6.75;;;4.78;;
21356;SDS011;10836;53.068;18.234;2023-07-09T03:41:04;8.32;;;4.68;;
21356;SDS011;10836;53.068;18.234;2023-07-09T03:43:31;6.78;;;4.47;;
21356;SDS011;10836;53.068;18.234;2023-07-09T03:45:58;8.13;;;4.80;;
21356;SDS011;10836;53.068;18.234;2023-07-09T03:48:25;6.32;;;4.10;;
21356;SDS011;10836;53.068;18.234;2023-07-09T03:50:52;9.40;;;4.65;;
21356;SDS011;10836;53.068;18.234;2023-07-09T03:53:19;7.00;;;4.22;;
21356;SDS011;10836;53.068;18.234;2023-07-09T03:55:46;9.25;;;4.82;;
21356;SDS011;10836;53.068;18.234;2023-07-09T03:58:19;9.30;;;4.30;;
21356;SDS011;10836;53.068;18.234;2023-07-09T04:00:46;9.20;;;5.13;;
21356;SDS011;10836;53.068;18.234;2023-07-09T04:03:12;9.00;;;4.63;;
21356;SDS011;10836;53.068;18.234;2023-07-09T04:05:40;12.18;;;4.68;;
21356;SDS011;10836;53.068;18.234;2023-07-09T04:08:06;9.38;;;4.45;;
21356;SDS011;10836;53.068;18.234;2023-07-09T04:10:33;9.00;;;4.47;;
21356;SDS011;10836;53.068;18.234;2023-07-09T04:13:00;7.22;;;4.40;;
21356;SDS011;10836;53.068;18.234;2023-07-09T04:15:27;9.05;;;4.50;;
21356;SDS011;10836;53.068;18.234;2023-07-09T04:17:54;8.43;;;4.50;;
21356;SDS011;10836;53.068;18.234;2023-07-09T04:20:21;8.40;;;4.40;;
21356;SDS011;10836;53.068;18.234;2023-07-09T04:22:49;10.15;;;4.75;;
21356;SDS011;10836;53.068;18.234;2023-07-09T04:25:17;11.73;;;5.20;;
21356;SDS011;10836;53.068;18.234;2023-07-09T04:27:43;10.98;;;5.28;;
21356;SDS011;10836;53.068;18.234;2023-07-09T04:30:12;6.68;;;4.18;;
21356;SDS011;10836;53.068;18.234;2023-07-09T04:32:44;6.72;;;4.78;;
21356;SDS011;10836;53.068;18.234;2023-07-09T04:35:13;16.40;;;6.15;;
21356;SDS011;10836;53.068;18.234;2023-07-09T04:37:41;8.45;;;5.45;;
21356;SDS011;10836;53.068;18.234;2023-07-09T04:40:09;7.72;;;5.03;;
21356;SDS011;10836;53.068;18.234;2023-07-09T04:42:38;9.60;;;5.80;;
21356;SDS011;10836;53.068;18.234;2023-07-09T04:45:07;11.65;;;6.10;;
21356;SDS011;10836;53.068;18.234;2023-07-09T04:47:36;11.38;;;6.47;;
21356;SDS011;10836;53.068;18.234;2023-07-09T04:50:07;11.25;;;6.15;;
21356;SDS011;10836;53.068;18.234;2023-07-09T04:52:35;9.60;;;5.88;;
21356;SDS011;10836;53.068;18.234;2023-07-09T04:55:02;10.35;;;6.70;;
21356;SDS011;10836;53.068;18.234;2023-07-09T04:57:29;14.52;;;8.15;;
21356;SDS011;10836;53.068;18.234;2023-07-09T04:59:56;11.38;;;6.00;;
21356;SDS011;10836;53.068;18.234;2023-07-09T05:02:23;12.43;;;5.68;;
21356;SDS011;10836;53.068;18.234;2023-07-09T05:04:51;12.27;;;5.78;;
21356;SDS011;10836;53.068;18.234;2023-07-09T05:07:18;14.10;;;4.45;;
21356;SDS011;10836;53.068;18.234;2023-07-09T05:09:45;8.70;;;4.43;;
21356;SDS011;10836;53.068;18.234;2023-07-09T05:12:12;8.60;;;4.25;;
21356;SDS011;10836;53.068;18.234;2023-07-09T05:14:40;11.55;;;4.20;;
21356;SDS011;10836;53.068;18.234;2023-07-09T05:17:07;7.72;;;3.97;;
21356;SDS011;10836;53.068;18.234;2023-07-09T05:19:35;6.53;;;4.28;;
21356;SDS011;10836;53.068;18.234;2023-07-09T05:22:02;5.90;;;3.88;;
21356;SDS011;10836;53.068;18.234;2023-07-09T05:24:30;10.52;;;4.28;;
21356;SDS011;10836;53.068;18.234;2023-07-09T05:26:57;5.22;;;3.83;;
21356;SDS011;10836;53.068;18.234;2023-07-09T05:29:24;14.68;;;4.22;;
21356;SDS011;10836;53.068;18.234;2023-07-09T05:31:51;10.93;;;3.88;;
21356;SDS011;10836;53.068;18.234;2023-07-09T05:34:18;6.45;;;3.08;;
21356;SDS011;10836;53.068;18.234;2023-07-09T05:36:45;8.52;;;3.03;;
21356;SDS011;10836;53.068;18.234;2023-07-09T05:39:13;6.13;;;3.10;;
21356;SDS011;10836;53.068;18.234;2023-07-09T05:41:40;7.13;;;2.55;;
21356;SDS011;10836;53.068;18.234;2023-07-09T05:44:07;5.65;;;2.40;;
21356;SDS011;10836;53.068;18.234;2023-07-09T05:46:34;6.50;;;3.33;;
21356;SDS011;10836;53.068;18.234;2023-07-09T05:49:04;4.47;;;2.25;;
21356;SDS011;10836;53.068;18.234;2023-07-09T05:51:32;4.47;;;2.30;;
21356;SDS011;10836;53.068;18.234;2023-07-09T05:53:59;8.20;;;2.70;;
21356;SDS011;10836;53.068;18.234;2023-07-09T05:56:26;5.38;;;2.38;;
21356;SDS011;10836;53.068;18.234;2023-07-09T05:58:53;5.93;;;2.15;;
21356;SDS011;10836;53.068;18.234;2023-07-09T06:01:20;6.05;;;2.42;;
21356;SDS011;10836;53.068;18.234;2023-07-09T06:03:47;10.35;;;2.15;;
21356;SDS011;10836;53.068;18.234;2023-07-09T06:06:15;7.30;;;2.17;;
21356;SDS011;10836;53.068;18.234;2023-07-09T06:08:43;6.13;;;2.00;;
21356;SDS011;10836;53.068;18.234;2023-07-09T06:11:10;7.40;;;2.00;;
21356;SDS011;10836;53.068;18.234;2023-07-09T06:13:37;6.55;;;2.15;;
21356;SDS011;10836;53.068;18.234;2023-07-09T06:16:04;3.20;;;1.45;;
21356;SDS011;10836;53.068;18.234;2023-07-09T06:18:32;6.53;;;1.60;;
21356;SDS011;10836;53.068;18.234;2023-07-09T06:20:59;4.70;;;2.20;;
21356;SDS011;10836;53.068;18.234;2023-07-09T06:23:28;5.32;;;1.80;;
21356;SDS011;10836;53.068;18.234;2023-07-09T06:25:55;6.45;;;1.80;;
21356;SDS011;10836;53.068;18.234;2023-07-09T06:28:24;4.43;;;1.73;;
21356;SDS011;10836;53.068;18.234;2023-07-09T06:30:55;4.25;;;1.48;;
21356;SDS011;10836;53.068;18.234;2023-07-09T06:33:23;5.78;;;1.67;;
21356;SDS011;10836;53.068;18.234;2023-07-09T06:35:53;3.97;;;1.60;;
21356;SDS011;10836;53.068;18.234;2023-07-09T06:38:23;3.85;;;2.00;;
21356;SDS011;10836;53.068;18.234;2023-07-09T06:40:50;4.13;;;1.88;;
21356;SDS011;10836;53.068;18.234;2023-07-09T06:43:18;5.38;;;1.73;;
21356;SDS011;10836;53.068;18.234;2023-07-09T06:46:03;7.65;;;1.67;;
21356;SDS011;10836;53.068;18.234;2023-07-09T06:48:30;3.60;;;1.50;;
21356;SDS011;10836;53.068;18.234;2023-07-09T06:50:58;6.15;;;1.80;;
21356;SDS011;10836;53.068;18.234;2023-07-09T06:53:27;4.72;;;1.58;;
21356;SDS011;10836;53.068;18.234;2023-07-09T06:55:55;5.78;;;1.58;;
21356;SDS011;10836;53.068;18.234;2023-07-09T06:58:26;3.95;;;1.95;;
21356;SDS011;10836;53.068;18.234;2023-07-09T07:00:59;4.25;;;1.75;;
21356;SDS011;10836;53.068;18.234;2023-07-09T07:03:31;5.03;;;2.10;;
21356;SDS011;10836;53.068;18.234;2023-07-09T07:05:59;3.38;;;1.60;;
21356;SDS011;10836;53.068;18.234;2023-07-09T07:08:27;6.30;;;1.75;;
21356;SDS011;10836;53.068;18.234;2023-07-09T07:10:55;4.82;;;1.83;;
21356;SDS011;10836;53.068;18.234;2023-07-09T07:13:29;5.68;;;1.90;;
21356;SDS011;10836;53.068;18.234;2023-07-09T07:16:12;5.78;;;1.90;;
21356;SDS011;10836;53.068;18.234;2023-07-09T07:18:40;6.70;;;1.67;;
21356;SDS011;10836;53.068;18.234;2023-07-09T07:21:07;4.80;;;2.20;;
21356;SDS011;10836;53.068;18.234;2023-07-09T07:23:34;7.20;;;1.63;;
21356;SDS011;10836;53.068;18.234;2023-07-09T07:26:01;7.07;;;2.33;;
21356;SDS011;10836;53.068;18.234;2023-07-09T07:28:31;5.10;;;1.98;;
21356;SDS011;10836;53.068;18.234;2023-07-09T07:30:58;7.50;;;1.95;;
21356;SDS011;10836;53.068;18.234;2023-07-09T07:33:26;3.20;;;1.63;;
21356;SDS011;10836;53.068;18.234;2023-07-09T07:35:53;3.28;;;1.45;;
21356;SDS011;10836;53.068;18.234;2023-07-09T07:38:41;3.13;;;1.77;;
21356;SDS011;10836;53.068;18.234;2023-07-09T07:41:08;5.38;;;1.70;;
21356;SDS011;10836;53.068;18.234;2023-07-09T07:43:35;5.78;;;2.00;;
21356;SDS011;10836;53.068;18.234;2023-07-09T07:46:02;5.78;;;1.65;;
21356;SDS011;10836;53.068;18.234;2023-07-09T07:48:29;4.80;;;1.65;;
21356;SDS011;10836;53.068;18.234;2023-07-09T07:50:59;4.82;;;2.35;;
21356;SDS011;10836;53.068;18.234;2023-07-09T07:53:31;3.90;;;1.48;;
21356;SDS011;10836;53.068;18.234;2023-07-09T07:55:58;4.38;;;1.73;;
21356;SDS011;10836;53.068;18.234;2023-07-09T07:58:30;6.40;;;1.55;;
21356;SDS011;10836;53.068;18.234;2023-07-09T08:00:57;2.65;;;1.60;;
21356;SDS011;10836;53.068;18.234;2023-07-09T08:03:25;5.03;;;1.80;;
21356;SDS011;10836;53.068;18.234;2023-07-09T08:05:52;9.35;;;2.33;;
21356;SDS011;10836;53.068;18.234;2023-07-09T08:08:19;6.22;;;1.85;;
21356;SDS011;10836;53.068;18.234;2023-07-09T08:10:48;3.60;;;1.80;;
21356;SDS011;10836;53.068;18.234;2023-07-09T08:13:16;3.42;;;1.73;;
21356;SDS011;10836;53.068;18.234;2023-07-09T08:15:43;2.58;;;1.38;;
21356;SDS011;10836;53.068;18.234;2023-07-09T08:18:12;3.83;;;1.75;;
21356;SDS011;10836;53.068;18.234;2023-07-09T08:20:42;6.15;;;1.52;;
21356;SDS011;10836;53.068;18.234;2023-07-09T08:23:10;3.85;;;1.50;;
21356;SDS011;10836;53.068;18.234;2023-07-09T08:25:37;3.55;;;1.75;;
21356;SDS011;10836;53.068;18.234;2023-07-09T08:28:04;4.90;;;1.40;;
21356;SDS011;10836;53.068;18.234;2023-07-09T08:30:31;2.15;;;1.20;;
21356;SDS011;10836;53.068;18.234;2023-07-09T08:32:58;3.13;;;1.25;;
21356;SDS011;10836;53.068;18.234;2023-07-09T08:35:25;5.85;;;1.55;;
21356;SDS011;10836;53.068;18.234;2023-07-09T08:38:03;5.05;;;1.70;;
21356;SDS011;10836;53.068;18.234;2023-07-09T08:40:30;4.68;;;1.50;;
21356;SDS011;10836;53.068;18.234;2023-07-09T08:43:01;3.08;;;1.70;;
21356;SDS011;10836;53.068;18.234;2023-07-09T08:50:57;2.80;;;1.20;;
21356;SDS011;10836;53.068;18.234;2023-07-09T08:53:37;2.03;;;1.30;;
21356;SDS011;10836;53.068;18.234;2023-07-09T08:56:09;4.93;;;1.42;;
21356;SDS011;10836;53.068;18.234;2023-07-09T08:58:37;5.07;;;1.50;;
21356;SDS011;10836;53.068;18.234;2023-07-09T09:01:06;2.58;;;1.40;;
21356;SDS011;10836;53.068;18.234;2023-07-09T09:03:50;7.30;;;1.73;;
21356;SDS011;10836;53.068;18.234;2023-07-09T09:06:21;4.13;;;1.10;;
21356;SDS011;10836;53.068;18.234;2023-07-09T09:14:27;5.78;;;1.42;;
21356;SDS011;10836;53.068;18.234;2023-07-09T09:17:14;1.25;;;0.77;;
21356;SDS011;10836;53.068;18.234;2023-07-09T09:19:46;3.38;;;1.00;;
21356;SDS011;10836;53.068;18.234;2023-07-09T09:22:21;3.42;;;1.33;;
21356;SDS011;10836;53.068;18.234;2023-07-09T09:27:36;1.85;;;1.30;;
21356;SDS011;10836;53.068;18.234;2023-07-09T09:30:08;2.65;;;1.25;;
21356;SDS011;10836;53.068;18.234;2023-07-09T09:32:44;5.10;;;1.10;;
21356;SDS011;10836;53.068;18.234;2023-07-09T09:35:15;3.35;;;1.30;;
21356;SDS011;10836;53.068;18.234;2023-07-09T09:37:49;1.90;;;1.15;;
21356;SDS011;10836;53.068;18.234;2023-07-09T09:40:18;2.67;;;1.25;;
21356;SDS011;10836;53.068;18.234;2023-07-09T09:42:50;3.33;;;1.20;;
21356;SDS011;10836;53.068;18.234;2023-07-09T09:45:24;3.90;;;1.20;;
21356;SDS011;10836;53.068;18.234;2023-07-09T09:47:58;3.70;;;1.30;;
21356;SDS011;10836;53.068;18.234;2023-07-09T09:50:27;13.13;;;1.77;;
21356;SDS011;10836;53.068;18.234;2023-07-09T09:52:58;2.50;;;1.08;;
21356;SDS011;10836;53.068;18.234;2023-07-09T09:55:29;3.03;;;1.13;;
21356;SDS011;10836;53.068;18.234;2023-07-09T09:57:57;2.78;;;1.10;;
21356;SDS011;10836;53.068;18.234;2023-07-09T10:00:25;4.05;;;1.15;;
21356;SDS011;10836;53.068;18.234;2023-07-09T10:02:58;5.10;;;0.82;;
21356;SDS011;10836;53.068;18.234;2023-07-09T10:05:29;1.73;;;1.00;;
21356;SDS011;10836;53.068;18.234;2023-07-09T10:09:03;3.45;;;1.17;;
21356;SDS011;10836;53.068;18.234;2023-07-09T10:11:07;1.83;;;0.80;;
21356;SDS011;10836;53.068;18.234;2023-07-09T10:13:41;1.73;;;1.00;;
21356;SDS011;10836;53.068;18.234;2023-07-09T10:30:12;1.65;;;1.17;;
21356;SDS011;10836;53.068;18.234;2023-07-09T10:33:02;1.02;;;0.60;;
21356;SDS011;10836;53.068;18.234;2023-07-09T10:41:07;3.22;;;0.82;;
21356;SDS011;10836;53.068;18.234;2023-07-09T10:46:22;2.85;;;1.08;;
21356;SDS011;10836;53.068;18.234;2023-07-09T10:48:54;1.95;;;0.82;;
21356;SDS011;10836;53.068;18.234;2023-07-09T10:51:25;2.78;;;1.23;;
21356;SDS011;10836;53.068;18.234;2023-07-09T10:53:58;3.40;;;0.93;;
21356;SDS011;10836;53.068;18.234;2023-07-09T10:56:34;1.13;;;0.90;;
21356;SDS011;10836;53.068;18.234;2023-07-09T11:01:36;1.50;;;1.00;;
21356;SDS011;10836;53.068;18.234;2023-07-09T11:04:11;1.35;;;0.90;;
21356;SDS011;10836;53.068;18.234;2023-07-09T11:06:43;2.30;;;1.10;;
21356;SDS011;10836;53.068;18.234;2023-07-09T11:12:12;1.73;;;1.10;;
21356;SDS011;10836;53.068;18.234;2023-07-09T11:14:56;1.40;;;0.93;;
21356;SDS011;10836;53.068;18.234;2023-07-09T11:17:27;2.38;;;1.10;;
21356;SDS011;10836;53.068;18.234;2023-07-09T11:19:59;1.35;;;0.85;;
21356;SDS011;10836;53.068;18.234;2023-07-09T11:22:39;2.22;;;0.80;;
21356;SDS011;10836;53.068;18.234;2023-07-09T11:25:11;1.80;;;1.10;;
21356;SDS011;10836;53.068;18.234;2023-07-09T11:27:49;4.05;;;1.20;;
21356;SDS011;10836;53.068;18.234;2023-07-09T11:30:24;1.38;;;0.90;;
21356;SDS011;10836;53.068;18.234;2023-07-09T11:32:54;3.05;;;1.00;;
21356;SDS011;10836;53.068;18.234;2023-07-09T11:35:48;5.38;;;1.52;;
21356;SDS011;10836;53.068;18.234;2023-07-09T11:38:18;1.52;;;1.10;;
21356;SDS011;10836;53.068;18.234;2023-07-09T11:40:50;2.33;;;1.02;;
21356;SDS011;10836;53.068;18.234;2023-07-09T11:43:53;1.92;;;1.02;;
21356;SDS011;10836;53.068;18.234;2023-07-09T11:46:17;3.67;;;0.90;;
21356;SDS011;10836;53.068;18.234;2023-07-09T11:48:47;2.95;;;1.23;;
21356;SDS011;10836;53.068;18.234;2023-07-09T11:51:16;2.60;;;0.93;;
21356;SDS011;10836;53.068;18.234;2023-07-09T11:53:48;1.05;;;0.95;;
21356;SDS011;10836;53.068;18.234;2023-07-09T11:56:19;1.15;;;1.00;;
21356;SDS011;10836;53.068;18.234;2023-07-09T11:58:49;3.22;;;1.15;;
21356;SDS011;10836;53.068;18.234;2023-07-09T12:01:18;3.13;;;1.00;;
21356;SDS011;10836;53.068;18.234;2023-07-09T12:03:48;2.03;;;1.02;;
21356;SDS011;10836;53.068;18.234;2023-07-09T12:06:18;2.75;;;1.00;;
21356;SDS011;10836;53.068;18.234;2023-07-09T12:08:50;1.92;;;1.13;;
21356;SDS011;10836;53.068;18.234;2023-07-09T12:11:19;5.68;;;1.02;;
21356;SDS011;10836;53.068;18.234;2023-07-09T12:13:49;3.83;;;1.17;;
21356;SDS011;10836;53.068;18.234;2023-07-09T12:16:37;4.05;;;1.10;;
21356;SDS011;10836;53.068;18.234;2023-07-09T12:19:06;1.77;;;1.00;;
21356;SDS011;10836;53.068;18.234;2023-07-09T12:21:37;1.92;;;1.30;;
21356;SDS011;10836;53.068;18.234;2023-07-09T12:24:18;3.97;;;2.22;;
21356;SDS011;10836;53.068;18.234;2023-07-09T12:26:56;1.98;;;1.27;;
21356;SDS011;10836;53.068;18.234;2023-07-09T12:29:25;4.13;;;1.40;;
21356;SDS011;10836;53.068;18.234;2023-07-09T12:31:56;1.77;;;0.93;;
21356;SDS011;10836;53.068;18.234;2023-07-09T12:34:23;1.90;;;1.23;;
21356;SDS011;10836;53.068;18.234;2023-07-09T12:36:52;1.85;;;1.30;;
21356;SDS011;10836;53.068;18.234;2023-07-09T12:39:24;1.45;;;0.98;;
21356;SDS011;10836;53.068;18.234;2023-07-09T12:41:54;1.77;;;1.00;;
21356;SDS011;10836;53.068;18.234;2023-07-09T12:44:25;2.05;;;1.10;;
21356;SDS011;10836;53.068;18.234;2023-07-09T12:46:54;2.42;;;0.90;;
21356;SDS011;10836;53.068;18.234;2023-07-09T12:49:25;1.80;;;1.15;;
21356;SDS011;10836;53.068;18.234;2023-07-09T12:51:55;10.70;;;1.95;;
21356;SDS011;10836;53.068;18.234;2023-07-09T12:54:29;2.00;;;1.38;;
21356;SDS011;10836;53.068;18.234;2023-07-09T12:56:58;3.20;;;1.25;;
21356;SDS011;10836;53.068;18.234;2023-07-09T12:59:38;1.27;;;0.90;;
21356;SDS011;10836;53.068;18.234;2023-07-09T13:04:40;1.77;;;0.90;;
21356;SDS011;10836;53.068;18.234;2023-07-09T13:07:25;1.63;;;0.95;;
21356;SDS011;10836;53.068;18.234;2023-07-09T13:09:54;2.60;;;1.20;;
21356;SDS011;10836;53.068;18.234;2023-07-09T13:12:31;5.47;;;2.78;;
21356;SDS011;10836;53.068;18.234;2023-07-09T13:14:59;2.28;;;1.10;;
21356;SDS011;10836;53.068;18.234;2023-07-09T13:17:28;2.88;;;1.35;;
21356;SDS011;10836;53.068;18.234;2023-07-09T13:19:56;2.40;;;1.13;;
21356;SDS011;10836;53.068;18.234;2023-07-09T13:22:23;1.70;;;1.13;;
21356;SDS011;10836;53.068;18.234;2023-07-09T13:24:51;4.05;;;1.10;;
21356;SDS011;10836;53.068;18.234;2023-07-09T13:27:18;2.42;;;1.55;;
21356;SDS011;10836;53.068;18.234;2023-07-09T13:29:45;3.53;;;1.50;;
21356;SDS011;10836;53.068;18.234;2023-07-09T13:32:14;5.30;;;1.30;;
21356;SDS011;10836;53.068;18.234;2023-07-09T13:34:41;4.32;;;1.60;;
21356;SDS011;10836;53.068;18.234;2023-07-09T13:37:11;1.73;;;1.00;;
21356;SDS011;10836;53.068;18.234;2023-07-09T13:39:40;1.60;;;1.00;;
21356;SDS011;10836;53.068;18.234;2023-07-09T13:42:11;1.63;;;1.00;;
21356;SDS011;10836;53.068;18.234;2023-07-09T13:44:40;5.47;;;1.20;;
21356;SDS011;10836;53.068;18.234;2023-07-09T13:47:12;2.33;;;1.20;;
21356;SDS011;10836;53.068;18.234;2023-07-09T13:49:43;2.65;;;1.60;;
21356;SDS011;10836;53.068;18.234;2023-07-09T13:52:16;4.13;;;1.23;;
21356;SDS011;10836;53.068;18.234;2023-07-09T13:54:46;3.90;;;1.40;;
21356;SDS011;10836;53.068;18.234;2023-07-09T13:57:18;1.92;;;1.20;;
21356;SDS011;10836;53.068;18.234;2023-07-09T13:59:48;4.45;;;1.30;;
21356;SDS011;10836;53.068;18.234;2023-07-09T14:02:26;3.78;;;1.50;;
21356;SDS011;10836;53.068;18.234;2023-07-09T14:05:00;2.10;;;1.60;;
21356;SDS011;10836;53.068;18.234;2023-07-09T14:07:36;2.65;;;1.17;;
21356;SDS011;10836;53.068;18.234;2023-07-09T14:10:06;1.75;;;1.10;;
21356;SDS011;10836;53.068;18.234;2023-07-09T14:12:39;2.13;;;1.30;;
21356;SDS011;10836;53.068;18.234;2023-07-09T14:15:14;3.20;;;1.38;;
21356;SDS011;10836;53.068;18.234;2023-07-09T14:17:43;1.10;;;1.00;;
21356;SDS011;10836;53.068;18.234;2023-07-09T14:20:11;3.60;;;1.50;;
21356;SDS011;10836;53.068;18.234;2023-07-09T14:22:41;2.78;;;1.42;;
21356;SDS011;10836;53.068;18.234;2023-07-09T14:25:18;2.15;;;1.55;;
21356;SDS011;10836;53.068;18.234;2023-07-09T14:27:50;3.55;;;1.65;;
21356;SDS011;10836;53.068;18.234;2023-07-09T14:30:19;20.08;;;9.48;;
21356;SDS011;10836;53.068;18.234;2023-07-09T14:32:52;2.25;;;1.40;;
21356;SDS011;10836;53.068;18.234;2023-07-09T14:35:20;5.28;;;1.52;;
21356;SDS011;10836;53.068;18.234;2023-07-09T14:37:50;3.80;;;1.38;;
21356;SDS011;10836;53.068;18.234;2023-07-09T14:40:19;20.35;;;3.38;;
21356;SDS011;10836;53.068;18.234;2023-07-09T14:42:47;1.95;;;1.35;;
21356;SDS011;10836;53.068;18.234;2023-07-09T14:45:20;3.88;;;1.80;;
21356;SDS011;10836;53.068;18.234;2023-07-09T14:47:49;11.98;;;2.45;;
21356;SDS011;10836;53.068;18.234;2023-07-09T14:50:20;4.10;;;1.70;;
21356;SDS011;10836;53.068;18.234;2023-07-09T14:52:49;4.53;;;2.08;;
21356;SDS011;10836;53.068;18.234;2023-07-09T14:55:17;1.77;;;1.55;;
21356;SDS011;10836;53.068;18.234;2023-07-09T14:57:49;2.67;;;1.38;;
21356;SDS011;10836;53.068;18.234;2023-07-09T15:00:17;3.30;;;1.83;;
21356;SDS011;10836;53.068;18.234;2023-07-09T15:02:47;2.40;;;1.60;;
21356;SDS011;10836;53.068;18.234;2023-07-09T15:05:21;4.35;;;1.42;;
21356;SDS011;10836;53.068;18.234;2023-07-09T15:07:52;6.15;;;1.70;;
21356;SDS011;10836;53.068;18.234;2023-07-09T15:10:23;3.97;;;1.60;;
21356;SDS011;10836;53.068;18.234;2023-07-09T15:12:51;2.17;;;1.55;;
21356;SDS011;10836;53.068;18.234;2023-07-09T15:18:08;9.95;;;1.88;;
21356;SDS011;10836;53.068;18.234;2023-07-09T15:20:38;2.17;;;1.70;;
21356;SDS011;10836;53.068;18.234;2023-07-09T15:23:07;2.22;;;1.30;;
21356;SDS011;10836;53.068;18.234;2023-07-09T15:25:36;5.78;;;1.73;;
21356;SDS011;10836;53.068;18.234;2023-07-09T15:28:04;8.18;;;1.95;;
21356;SDS011;10836;53.068;18.234;2023-07-09T15:30:30;3.05;;;1.60;;
21356;SDS011;10836;53.068;18.234;2023-07-09T15:32:59;2.90;;;1.80;;
21356;SDS011;10836;53.068;18.234;2023-07-09T15:35:35;4.28;;;1.67;;
21356;SDS011;10836;53.068;18.234;2023-07-09T15:38:12;5.07;;;1.58;;
21356;SDS011;10836;53.068;18.234;2023-07-09T15:40:48;2.35;;;1.70;;
21356;SDS011;10836;53.068;18.234;2023-07-09T15:43:16;2.17;;;1.40;;